sensor_id;sensor_type;location;lat;lon;timestamp;pressure;altitude;pressure_sealevel;temperature;humidity
54628;BME280;40525;55.926;21.066;2023-07-13T00:02:08;100848.13;;;19.52;85.96
54628;BME280;40525;55.926;21.066;2023-07-13T00:05:02;100848.64;;;19.46;86.36
54628;BME280;40525;55.926;21.066;2023-07-13T00:07:56;100853.95;;;19.42;86.32
54628;BME280;40525;55.926;21.066;2023-07-13T00:10:52;100855.55;;;19.35;86.01
54628;BME280;40525;55.926;21.066;2023-07-13T00:13:29;100854.86;;;19.28;85.75
54628;BME280;40525;55.926;21.066;2023-07-13T00:16:20;100851.42;;;19.23;85.96
54628;BME280;40525;55.926;21.066;2023-07-13T00:18:54;100851.71;;;19.21;85.85
54628;BME280;40525;55.926;21.066;2023-07-13T00:21:42;100858.98;;;19.22;85.49
54628;BME280;40525;55.926;21.066;2023-07-13T00:24:17;100856.90;;;19.23;85.61
54628;BME280;40525;55.926;21.066;2023-07-13T00:27:05;100855.95;;;19.21;85.77
54628;BME280;40525;55.926;21.066;2023-07-13T00:29:46;100851.98;;;19.20;85.66
54628;BME280;40525;55.926;21.066;2023-07-13T00:32:27;100850.33;;;19.19;86.17
54628;BME280;40525;55.926;21.066;2023-07-13T00:35:07;100849.21;;;19.15;86.48
54628;BME280;40525;55.926;21.066;2023-07-13T00:37:48;100847.20;;;19.13;86.36
54628;BME280;40525;55.926;21.066;2023-07-13T00:40:28;100843.20;;;19.14;86.34
54628;BME280;40525;55.926;21.066;2023-07-13T00:43:15;100843.05;;;19.13;86.36
54628;BME280;40525;55.926;21.066;2023-07-13T00:48:37;100840.90;;;19.09;86.77
54628;BME280;40525;55.926;21.066;2023-07-13T00:51:23;100842.29;;;19.07;86.22
54628;BME280;40525;55.926;21.066;2023-07-13T00:54:08;100840.56;;;19.02;86.43
54628;BME280;40525;55.926;21.066;2023-07-13T00:56:51;100838.54;;;18.98;87.23
54628;BME280;40525;55.926;21.066;2023-07-13T00:59:34;100840.39;;;18.98;87.45
54628;BME280;40525;55.926;21.066;2023-07-13T01:02:15;100840.77;;;18.97;87.49
54628;BME280;40525;55.926;21.066;2023-07-13T01:04:56;100838.48;;;18.92;87.97
54628;BME280;40525;55.926;21.066;2023-07-13T01:07:36;100841.16;;;18.88;88.85
54628;BME280;40525;55.926;21.066;2023-07-13T01:10:20;100838.92;;;18.86;88.46
54628;BME280;40525;55.926;21.066;2023-07-13T01:13:01;100838.55;;;18.87;87.95
54628;BME280;40525;55.926;21.066;2023-07-13T01:15:46;100842.02;;;18.86;88.01
54628;BME280;40525;55.926;21.066;2023-07-13T01:18:28;100843.61;;;18.84;88.44
54628;BME280;40525;55.926;21.066;2023-07-13T01:21:11;100845.69;;;18.80;88.52
54628;BME280;40525;55.926;21.066;2023-07-13T01:23:51;100846.35;;;18.78;88.65
54628;BME280;40525;55.926;21.066;2023-07-13T01:26:32;100847.70;;;18.81;88.53
54628;BME280;40525;55.926;21.066;2023-07-13T01:29:13;100846.65;;;18.83;88.50
54628;BME280;40525;55.926;21.066;2023-07-13T01:31:55;100842.61;;;18.85;88.52
54628;BME280;40525;55.926;21.066;2023-07-13T01:34:36;100844.28;;;18.82;88.95
54628;BME280;40525;55.926;21.066;2023-07-13T01:37:17;100836.11;;;18.79;88.72
54628;BME280;40525;55.926;21.066;2023-07-13T01:39:57;100838.21;;;18.77;88.58
54628;BME280;40525;55.926;21.066;2023-07-13T01:42:38;100838.63;;;18.77;88.70
54628;BME280;40525;55.926;21.066;2023-07-13T01:45:19;100838.87;;;18.78;89.03
54628;BME280;40525;55.926;21.066;2023-07-13T01:47:59;100840.25;;;18.76;89.24
54628;BME280;40525;55.926;21.066;2023-07-13T01:50:41;100841.70;;;18.73;89.31
54628;BME280;40525;55.926;21.066;2023-07-13T01:53:21;100845.13;;;18.75;89.02
54628;BME280;40525;55.926;21.066;2023-07-13T01:56:01;100841.65;;;18.79;89.39
54628;BME280;40525;55.926;21.066;2023-07-13T01:58:42;100844.09;;;18.82;89.24
54628;BME280;40525;55.926;21.066;2023-07-13T02:01:22;100844.38;;;18.81;89.06
54628;BME280;40525;55.926;21.066;2023-07-13T02:04:02;100849.14;;;18.76;89.09
54628;BME280;40525;55.926;21.066;2023-07-13T02:06:44;100849.39;;;18.78;89.01
54628;BME280;40525;55.926;21.066;2023-07-13T02:09:24;100854.06;;;18.77;89.08
54628;BME280;40525;55.926;21.066;2023-07-13T02:12:04;100857.25;;;18.75;89.72
54628;BME280;40525;55.926;21.066;2023-07-13T02:14:48;100858.88;;;18.72;89.85
54628;BME280;40525;55.926;21.066;2023-07-13T02:17:28;100866.36;;;18.72;89.53
54628;BME280;40525;55.926;21.066;2023-07-13T02:20:08;100873.17;;;18.72;89.88
54628;BME280;40525;55.926;21.066;2023-07-13T02:22:49;100874.17;;;18.70;89.97
54628;BME280;40525;55.926;21.066;2023-07-13T02:25:30;100871.92;;;18.69;90.11
54628;BME280;40525;55.926;21.066;2023-07-13T02:28:10;100872.77;;;18.65;90.57
54628;BME280;40525;55.926;21.066;2023-07-13T02:30:51;100877.63;;;18.63;91.32
54628;BME280;40525;55.926;21.066;2023-07-13T02:33:31;100882.23;;;18.63;90.95
54628;BME280;40525;55.926;21.066;2023-07-13T02:36:12;100889.64;;;18.64;91.06
54628;BME280;40525;55.926;21.066;2023-07-13T02:38:54;100895.87;;;18.64;91.07
54628;BME280;40525;55.926;21.066;2023-07-13T02:41:34;100902.95;;;18.67;90.74
54628;BME280;40525;55.926;21.066;2023-07-13T02:44:14;100904.11;;;18.70;90.76
54628;BME280;40525;55.926;21.066;2023-07-13T02:46:54;100907.58;;;18.71;90.79
54628;BME280;40525;55.926;21.066;2023-07-13T02:49:35;100907.19;;;18.72;90.90
54628;BME280;40525;55.926;21.066;2023-07-13T02:52:18;100907.28;;;18.75;90.78
54628;BME280;40525;55.926;21.066;2023-07-13T02:54:58;100902.57;;;18.76;90.41
54628;BME280;40525;55.926;21.066;2023-07-13T02:57:38;100902.48;;;18.78;90.59
54628;BME280;40525;55.926;21.066;2023-07-13T03:00:18;100908.55;;;18.78;90.89
54628;BME280;40525;55.926;21.066;2023-07-13T03:02:57;100909.23;;;18.78;91.16
54628;BME280;40525;55.926;21.066;2023-07-13T03:05:45;100910.34;;;18.77;91.90
54628;BME280;40525;55.926;21.066;2023-07-13T03:08:44;100916.27;;;18.74;91.72
54628;BME280;40525;55.926;21.066;2023-07-13T03:11:24;100920.54;;;18.74;91.59
54628;BME280;40525;55.926;21.066;2023-07-13T03:14:18;100921.10;;;18.76;91.53
54628;BME280;40525;55.926;21.066;2023-07-13T03:16:59;100924.58;;;18.83;91.69
54628;BME280;40525;55.926;21.066;2023-07-13T03:19:43;100927.67;;;18.84;91.85
54628;BME280;40525;55.926;21.066;2023-07-13T03:22:24;100926.16;;;18.83;91.83
54628;BME280;40525;55.926;21.066;2023-07-13T03:25:06;100923.52;;;18.83;91.96
54628;BME280;40525;55.926;21.066;2023-07-13T03:27:48;100928.27;;;18.85;92.01
54628;BME280;40525;55.926;21.066;2023-07-13T03:30:28;100926.91;;;18.87;91.78
54628;BME280;40525;55.926;21.066;2023-07-13T03:33:09;100930.74;;;18.85;92.41
54628;BME280;40525;55.926;21.066;2023-07-13T03:35:48;100925.18;;;18.84;92.29
54628;BME280;40525;55.926;21.066;2023-07-13T03:38:29;100921.21;;;18.89;92.10
54628;BME280;40525;55.926;21.066;2023-07-13T03:41:08;100920.58;;;18.93;92.00
54628;BME280;40525;55.926;21.066;2023-07-13T03:43:50;100921.08;;;18.95;92.02
54628;BME280;40525;55.926;21.066;2023-07-13T03:46:32;100927.23;;;18.97;92.21
54628;BME280;40525;55.926;21.066;2023-07-13T03:49:13;100930.52;;;18.95;91.99
54628;BME280;40525;55.926;21.066;2023-07-13T03:51:53;100935.43;;;18.96;92.28
54628;BME280;40525;55.926;21.066;2023-07-13T03:54:34;100931.66;;;18.95;92.14
54628;BME280;40525;55.926;21.066;2023-07-13T03:57:13;100931.77;;;18.96;92.18
54628;BME280;40525;55.926;21.066;2023-07-13T03:59:55;100926.59;;;18.96;92.35
54628;BME280;40525;55.926;21.066;2023-07-13T04:02:47;100924.71;;;18.97;92.26
54628;BME280;40525;55.926;21.066;2023-07-13T04:05:37;100922.96;;;19.01;91.99
54628;BME280;40525;55.926;21.066;2023-07-13T04:08:34;100918.22;;;19.04;92.05
54628;BME280;40525;55.926;21.066;2023-07-13T04:11:08;100919.05;;;19.10;91.68
54628;BME280;40525;55.926;21.066;2023-07-13T04:14:07;100926.27;;;19.11;91.64
54628;BME280;40525;55.926;21.066;2023-07-13T04:16:48;100929.67;;;19.13;91.44
54628;BME280;40525;55.926;21.066;2023-07-13T04:19:28;100929.50;;;19.13;91.24
54628;BME280;40525;55.926;21.066;2023-07-13T04:22:09;100930.04;;;19.11;91.23
54628;BME280;40525;55.926;21.066;2023-07-13T04:24:48;100931.48;;;19.08;91.44
54628;BME280;40525;55.926;21.066;2023-07-13T04:27:30;100930.73;;;19.06;91.28
54628;BME280;40525;55.926;21.066;2023-07-13T04:30:10;100933.55;;;19.09;91.39
54628;BME280;40525;55.926;21.066;2023-07-13T04:32:52;100934.44;;;19.09;91.52
54628;BME280;40525;55.926;21.066;2023-07-13T04:35:32;100931.18;;;19.10;91.34
54628;BME280;40525;55.926;21.066;2023-07-13T04:38:12;100931.91;;;19.12;91.46
54628;BME280;40525;55.926;21.066;2023-07-13T04:40:55;100935.77;;;19.20;91.34
54628;BME280;40525;55.926;21.066;2023-07-13T04:43:36;100938.48;;;19.26;90.85
54628;BME280;40525;55.926;21.066;2023-07-13T04:46:17;100939.94;;;19.32;90.62
54628;BME280;40525;55.926;21.066;2023-07-13T04:48:59;100939.18;;;19.42;90.38
54628;BME280;40525;55.926;21.066;2023-07-13T04:51:39;100942.64;;;19.47;89.98
54628;BME280;40525;55.926;21.066;2023-07-13T04:54:20;100946.65;;;19.49;89.49
54628;BME280;40525;55.926;21.066;2023-07-13T04:57:01;100950.40;;;19.46;89.35
54628;BME280;40525;55.926;21.066;2023-07-13T04:59:41;100947.66;;;19.49;89.37
54628;BME280;40525;55.926;21.066;2023-07-13T05:02:22;100949.50;;;19.56;89.27
54628;BME280;40525;55.926;21.066;2023-07-13T05:05:09;100950.09;;;19.62;89.11
54628;BME280;40525;55.926;21.066;2023-07-13T05:08:04;100951.02;;;19.66;88.98
54628;BME280;40525;55.926;21.066;2023-07-13T05:10:37;100954.27;;;19.74;88.47
54628;BME280;40525;55.926;21.066;2023-07-13T05:13:24;100957.82;;;19.77;87.94
54628;BME280;40525;55.926;21.066;2023-07-13T05:16:04;100961.76;;;19.79;87.47
54628;BME280;40525;55.926;21.066;2023-07-13T05:18:51;100952.47;;;19.84;87.32
54628;BME280;40525;55.926;21.066;2023-07-13T05:21:32;100956.17;;;19.91;87.12
54628;BME280;40525;55.926;21.066;2023-07-13T05:24:12;100964.41;;;19.97;86.85
54628;BME280;40525;55.926;21.066;2023-07-13T05:26:58;100969.42;;;20.08;86.33
54628;BME280;40525;55.926;21.066;2023-07-13T05:29:39;100973.84;;;20.11;85.71
54628;BME280;40525;55.926;21.066;2023-07-13T05:32:20;100972.50;;;20.16;85.54
54628;BME280;40525;55.926;21.066;2023-07-13T05:35:01;100969.86;;;20.22;85.20
54628;BME280;40525;55.926;21.066;2023-07-13T05:37:43;100974.23;;;20.25;84.93
54628;BME280;40525;55.926;21.066;2023-07-13T05:40:23;100977.85;;;20.29;84.65
54628;BME280;40525;55.926;21.066;2023-07-13T05:43:03;100981.35;;;20.32;84.07
54628;BME280;40525;55.926;21.066;2023-07-13T05:45:43;100986.29;;;20.35;84.22
54628;BME280;40525;55.926;21.066;2023-07-13T05:48:24;100985.88;;;20.40;83.92
54628;BME280;40525;55.926;21.066;2023-07-13T05:51:03;100990.88;;;20.47;83.90
54628;BME280;40525;55.926;21.066;2023-07-13T05:53:43;100995.90;;;20.55;83.77
54628;BME280;40525;55.926;21.066;2023-07-13T05:56:24;100998.64;;;20.61;83.36
54628;BME280;40525;55.926;21.066;2023-07-13T05:59:06;100995.45;;;20.65;83.05
54628;BME280;40525;55.926;21.066;2023-07-13T06:01:46;101001.66;;;20.72;82.71
54628;BME280;40525;55.926;21.066;2023-07-13T06:04:33;101001.86;;;20.76;81.87
54628;BME280;40525;55.926;21.066;2023-07-13T06:07:30;101004.91;;;20.74;81.78
54628;BME280;40525;55.926;21.066;2023-07-13T06:10:05;101006.64;;;20.72;81.67
54628;BME280;40525;55.926;21.066;2023-07-13T06:12:52;101006.14;;;20.74;81.79
54628;BME280;40525;55.926;21.066;2023-07-13T06:15:26;101006.35;;;20.80;81.79
54628;BME280;40525;55.926;21.066;2023-07-13T06:18:12;100996.59;;;20.92;81.68
54628;BME280;40525;55.926;21.066;2023-07-13T06:20:46;100991.10;;;21.01;81.44
54628;BME280;40525;55.926;21.066;2023-07-13T06:23:32;100986.55;;;21.09;80.66
54628;BME280;40525;55.926;21.066;2023-07-13T06:26:13;100988.16;;;21.11;80.45
54628;BME280;40525;55.926;21.066;2023-07-13T06:28:54;100995.73;;;21.17;80.09
54628;BME280;40525;55.926;21.066;2023-07-13T06:31:35;101001.09;;;21.10;79.59
54628;BME280;40525;55.926;21.066;2023-07-13T06:34:15;101005.30;;;20.99;79.92
54628;BME280;40525;55.926;21.066;2023-07-13T06:36:56;101010.04;;;20.93;80.20
54628;BME280;40525;55.926;21.066;2023-07-13T06:39:37;101016.02;;;20.93;80.52
54628;BME280;40525;55.926;21.066;2023-07-13T06:42:22;101021.34;;;20.99;80.50
54628;BME280;40525;55.926;21.066;2023-07-13T06:47:43;101027.49;;;21.11;79.80
54628;BME280;40525;55.926;21.066;2023-07-13T06:50:37;101022.96;;;21.10;79.83
54628;BME280;40525;55.926;21.066;2023-07-13T06:53:11;101028.93;;;21.13;79.47
54628;BME280;40525;55.926;21.066;2023-07-13T06:55:59;101034.30;;;21.13;78.98
54628;BME280;40525;55.926;21.066;2023-07-13T06:58:39;101030.77;;;21.15;79.06
54628;BME280;40525;55.926;21.066;2023-07-13T07:01:19;101034.04;;;21.20;78.86
54628;BME280;40525;55.926;21.066;2023-07-13T07:04:00;101042.94;;;21.21;78.46
54628;BME280;40525;55.926;21.066;2023-07-13T07:06:40;101049.55;;;21.19;78.56
54628;BME280;40525;55.926;21.066;2023-07-13T07:09:20;101049.77;;;21.12;78.52
54628;BME280;40525;55.926;21.066;2023-07-13T07:12:03;101051.70;;;21.10;78.58
54628;BME280;40525;55.926;21.066;2023-07-13T07:14:46;101058.00;;;21.16;78.62
54628;BME280;40525;55.926;21.066;2023-07-13T07:17:26;101063.10;;;21.19;78.45
54628;BME280;40525;55.926;21.066;2023-07-13T07:20:07;101068.89;;;21.18;78.07
54628;BME280;40525;55.926;21.066;2023-07-13T07:22:49;101068.02;;;21.16;78.12
54628;BME280;40525;55.926;21.066;2023-07-13T07:25:29;101067.55;;;21.17;78.12
54628;BME280;40525;55.926;21.066;2023-07-13T07:28:16;101073.75;;;21.26;78.23
54628;BME280;40525;55.926;21.066;2023-07-13T07:31:02;101080.96;;;21.32;77.97
54628;BME280;40525;55.926;21.066;2023-07-13T07:33:45;101083.41;;;21.37;77.84
54628;BME280;40525;55.926;21.066;2023-07-13T07:36:26;101081.52;;;21.42;77.49
54628;BME280;40525;55.926;21.066;2023-07-13T07:39:09;101087.02;;;21.47;77.46
54628;BME280;40525;55.926;21.066;2023-07-13T07:41:49;101090.91;;;21.54;77.13
54628;BME280;40525;55.926;21.066;2023-07-13T07:44:31;101093.17;;;21.63;77.11
54628;BME280;40525;55.926;21.066;2023-07-13T07:47:18;101088.73;;;21.75;77.01
54628;BME280;40525;55.926;21.066;2023-07-13T07:50:12;101090.55;;;21.83;76.09
54628;BME280;40525;55.926;21.066;2023-07-13T07:52:45;101085.84;;;21.80;75.64
54628;BME280;40525;55.926;21.066;2023-07-13T07:55:33;101087.92;;;21.83;76.05
54628;BME280;40525;55.926;21.066;2023-07-13T07:58:12;101094.36;;;21.87;75.40
54628;BME280;40525;55.926;21.066;2023-07-13T08:01:04;101095.83;;;21.88;75.79
54628;BME280;40525;55.926;21.066;2023-07-13T08:03:47;101092.44;;;21.98;75.59
54628;BME280;40525;55.926;21.066;2023-07-13T08:06:32;101089.77;;;22.02;74.76
54628;BME280;40525;55.926;21.066;2023-07-13T08:09:19;101093.69;;;21.97;74.76
54628;BME280;40525;55.926;21.066;2023-07-13T08:12:00;101092.71;;;21.99;74.81
54628;BME280;40525;55.926;21.066;2023-07-13T08:14:43;101098.98;;;21.95;74.41
54628;BME280;40525;55.926;21.066;2023-07-13T08:17:30;101105.88;;;21.92;74.54
54628;BME280;40525;55.926;21.066;2023-07-13T08:20:11;101102.70;;;21.92;74.67
54628;BME280;40525;55.926;21.066;2023-07-13T08:22:52;101102.13;;;21.96;74.94
54628;BME280;40525;55.926;21.066;2023-07-13T08:25:33;101108.63;;;22.06;75.10
54628;BME280;40525;55.926;21.066;2023-07-13T08:28:15;101112.25;;;22.13;74.36
54628;BME280;40525;55.926;21.066;2023-07-13T08:30:55;101111.05;;;22.11;73.85
54628;BME280;40525;55.926;21.066;2023-07-13T08:33:41;101114.95;;;22.09;73.86
54628;BME280;40525;55.926;21.066;2023-07-13T08:36:23;101119.14;;;22.10;73.37
54628;BME280;40525;55.926;21.066;2023-07-13T08:39:03;101114.88;;;22.14;73.91
54628;BME280;40525;55.926;21.066;2023-07-13T08:41:47;101116.83;;;22.25;73.86
54628;BME280;40525;55.926;21.066;2023-07-13T08:47:30;101114.49;;;22.27;73.33
54628;BME280;40525;55.926;21.066;2023-07-13T08:50:32;101112.58;;;22.12;73.75
54628;BME280;40525;55.926;21.066;2023-07-13T08:53:30;101112.08;;;22.13;74.00
54628;BME280;40525;55.926;21.066;2023-07-13T08:56:22;101122.70;;;22.18;73.92
54628;BME280;40525;55.926;21.066;2023-07-13T08:59:09;101117.20;;;22.16;73.65
54628;BME280;40525;55.926;21.066;2023-07-13T09:07:48;101123.66;;;22.24;74.36
54628;BME280;40525;55.926;21.066;2023-07-13T09:10:32;101124.67;;;22.44;73.81
54628;BME280;40525;55.926;21.066;2023-07-13T09:13:43;101132.69;;;22.52;73.42
54628;BME280;40525;55.926;21.066;2023-07-13T09:16:21;101138.01;;;22.51;72.86
54628;BME280;40525;55.926;21.066;2023-07-13T09:19:17;101136.25;;;22.42;72.43
54628;BME280;40525;55.926;21.066;2023-07-13T09:21:54;101144.86;;;22.38;72.65
54628;BME280;40525;55.926;21.066;2023-07-13T09:27:36;101141.99;;;22.42;71.90
54628;BME280;40525;55.926;21.066;2023-07-13T09:30:34;101147.23;;;22.44;71.82
54628;BME280;40525;55.926;21.066;2023-07-13T09:33:11;101147.12;;;22.35;71.39
54628;BME280;40525;55.926;21.066;2023-07-13T09:35:59;101146.03;;;22.33;72.10
54628;BME280;40525;55.926;21.066;2023-07-13T09:38:40;101140.77;;;22.44;72.32
54628;BME280;40525;55.926;21.066;2023-07-13T09:41:31;101141.63;;;22.61;72.31
54628;BME280;40525;55.926;21.066;2023-07-13T09:44:18;101140.28;;;22.71;71.02
54628;BME280;40525;55.926;21.066;2023-07-13T09:47:18;101141.66;;;22.58;71.00
54628;BME280;40525;55.926;21.066;2023-07-13T09:50:01;101148.98;;;22.42;71.32
54628;BME280;40525;55.926;21.066;2023-07-13T09:52:46;101152.48;;;22.27;72.31
54628;BME280;40525;55.926;21.066;2023-07-13T09:58:21;101148.96;;;22.11;73.69
54628;BME280;40525;55.926;21.066;2023-07-13T10:01:04;101157.48;;;22.27;73.68
54628;BME280;40525;55.926;21.066;2023-07-13T10:03:53;101152.64;;;22.33;73.11
54628;BME280;40525;55.926;21.066;2023-07-13T10:06:33;101154.48;;;22.39;72.88
54628;BME280;40525;55.926;21.066;2023-07-13T10:09:23;101155.53;;;22.39;72.82
54628;BME280;40525;55.926;21.066;2023-07-13T10:11:57;101154.65;;;22.53;73.26
54628;BME280;40525;55.926;21.066;2023-07-13T10:14:46;101162.30;;;22.73;72.57
54628;BME280;40525;55.926;21.066;2023-07-13T10:17:38;101166.23;;;22.89;72.39
54628;BME280;40525;55.926;21.066;2023-07-13T10:20:26;101167.66;;;23.02;71.36
54628;BME280;40525;55.926;21.066;2023-07-13T10:23:15;101177.33;;;23.06;70.76
54628;BME280;40525;55.926;21.066;2023-07-13T10:26:07;101180.96;;;23.19;70.96
54628;BME280;40525;55.926;21.066;2023-07-13T10:28:47;101183.20;;;23.36;70.44
54628;BME280;40525;55.926;21.066;2023-07-13T10:31:38;101190.21;;;23.46;69.96
54628;BME280;40525;55.926;21.066;2023-07-13T10:34:13;101186.98;;;23.67;69.22
54628;BME280;40525;55.926;21.066;2023-07-13T10:37:01;101188.73;;;23.77;69.13
54628;BME280;40525;55.926;21.066;2023-07-13T10:39:42;101189.89;;;24.01;69.06
54628;BME280;40525;55.926;21.066;2023-07-13T10:42:39;101189.42;;;24.15;67.22
54628;BME280;40525;55.926;21.066;2023-07-13T10:45:34;101182.59;;;24.11;66.22
54628;BME280;40525;55.926;21.066;2023-07-13T10:48:30;101181.37;;;24.15;66.39
54628;BME280;40525;55.926;21.066;2023-07-13T10:51:06;101182.36;;;24.35;66.38
54628;BME280;40525;55.926;21.066;2023-07-13T10:54:20;101187.15;;;24.48;65.15
54628;BME280;40525;55.926;21.066;2023-07-13T10:57:21;101193.09;;;24.35;63.11
54628;BME280;40525;55.926;21.066;2023-07-13T11:00:16;101194.22;;;24.22;63.65
54628;BME280;40525;55.926;21.066;2023-07-13T11:03:00;101200.73;;;24.30;64.13
54628;BME280;40525;55.926;21.066;2023-07-13T11:06:03;101206.59;;;24.42;64.00
54628;BME280;40525;55.926;21.066;2023-07-13T11:08:54;101210.12;;;24.41;63.24
54628;BME280;40525;55.926;21.066;2023-07-13T11:11:40;101209.98;;;24.35;62.92
54628;BME280;40525;55.926;21.066;2023-07-13T11:20:22;101211.92;;;23.80;62.99
54628;BME280;40525;55.926;21.066;2023-07-13T11:23:27;101216.84;;;23.78;63.14
54628;BME280;40525;55.926;21.066;2023-07-13T11:26:02;101222.22;;;23.70;62.28
54628;BME280;40525;55.926;21.066;2023-07-13T11:28:50;101220.32;;;23.50;62.86
54628;BME280;40525;55.926;21.066;2023-07-13T11:31:24;101226.75;;;23.52;62.71
54628;BME280;40525;55.926;21.066;2023-07-13T11:34:14;101220.47;;;23.43;62.53
54628;BME280;40525;55.926;21.066;2023-07-13T11:36:48;101225.88;;;23.60;63.03
54628;BME280;40525;55.926;21.066;2023-07-13T11:39:36;101223.23;;;23.90;62.95
54628;BME280;40525;55.926;21.066;2023-07-13T11:42:21;101229.13;;;24.17;62.32
54628;BME280;40525;55.926;21.066;2023-07-13T11:45:01;101230.35;;;24.40;61.68
54628;BME280;40525;55.926;21.066;2023-07-13T11:47:49;101232.61;;;24.47;60.86
54628;BME280;40525;55.926;21.066;2023-07-13T11:51:01;101234.88;;;24.59;61.46
54628;BME280;40525;55.926;21.066;2023-07-13T11:53:44;101235.29;;;24.81;61.41
54628;BME280;40525;55.926;21.066;2023-07-13T11:56:34;101240.13;;;24.64;60.29
54628;BME280;40525;55.926;21.066;2023-07-13T11:59:08;101238.30;;;24.47;60.36
54628;BME280;40525;55.926;21.066;2023-07-13T12:01:59;101240.66;;;24.45;60.93
54628;BME280;40525;55.926;21.066;2023-07-13T12:04:34;101235.52;;;24.63;60.67
54628;BME280;40525;55.926;21.066;2023-07-13T12:07:22;101234.52;;;24.88;60.03
54628;BME280;40525;55.926;21.066;2023-07-13T12:10:16;101240.17;;;25.02;59.51
54628;BME280;40525;55.926;21.066;2023-07-13T12:13:05;101242.59;;;25.03;59.10
54628;BME280;40525;55.926;21.066;2023-07-13T12:15:46;101244.98;;;25.12;59.06
54628;BME280;40525;55.926;21.066;2023-07-13T12:18:36;101241.30;;;25.22;58.61
54628;BME280;40525;55.926;21.066;2023-07-13T12:21:12;101241.03;;;25.43;57.98
54628;BME280;40525;55.926;21.066;2023-07-13T12:24:00;101241.35;;;25.56;56.63
54628;BME280;40525;55.926;21.066;2023-07-13T12:26:37;101238.13;;;25.79;57.29
54628;BME280;40525;55.926;21.066;2023-07-13T12:29:23;101240.82;;;26.14;55.99
54628;BME280;40525;55.926;21.066;2023-07-13T12:31:57;101243.35;;;25.89;55.01
54628;BME280;40525;55.926;21.066;2023-07-13T12:34:53;101246.91;;;25.63;55.56
54628;BME280;40525;55.926;21.066;2023-07-13T12:37:27;101244.17;;;25.58;55.65
54628;BME280;40525;55.926;21.066;2023-07-13T12:40:18;101243.08;;;25.64;55.86
54628;BME280;40525;55.926;21.066;2023-07-13T12:42:53;101245.42;;;25.83;55.58
54628;BME280;40525;55.926;21.066;2023-07-13T12:46:19;101237.71;;;26.06;55.22
54628;BME280;40525;55.926;21.066;2023-07-13T12:49:28;101239.55;;;26.07;54.28
54628;BME280;40525;55.926;21.066;2023-07-13T12:52:28;101240.27;;;26.00;55.10
54628;BME280;40525;55.926;21.066;2023-07-13T12:55:15;101239.88;;;26.28;54.83
54628;BME280;40525;55.926;21.066;2023-07-13T12:58:06;101241.89;;;26.51;54.15
54628;BME280;40525;55.926;21.066;2023-07-13T13:00:49;101247.73;;;26.74;53.86
54628;BME280;40525;55.926;21.066;2023-07-13T13:03:46;101248.78;;;27.13;52.64
54628;BME280;40525;55.926;21.066;2023-07-13T13:06:27;101250.66;;;27.28;51.88
54628;BME280;40525;55.926;21.066;2023-07-13T13:09:17;101253.73;;;27.19;51.17
54628;BME280;40525;55.926;21.066;2023-07-13T13:11:53;101253.92;;;27.14;51.90
54628;BME280;40525;55.926;21.066;2023-07-13T13:14:39;101254.14;;;26.77;52.26
54628;BME280;40525;55.926;21.066;2023-07-13T13:17:29;101254.95;;;26.59;52.57
54628;BME280;40525;55.926;21.066;2023-07-13T13:20:16;101252.19;;;26.70;52.49
54628;BME280;40525;55.926;21.066;2023-07-13T13:22:56;101255.88;;;26.69;52.03
54628;BME280;40525;55.926;21.066;2023-07-13T13:25:37;101256.67;;;26.73;52.47
54628;BME280;40525;55.926;21.066;2023-07-13T13:28:20;101255.52;;;26.93;52.32
54628;BME280;40525;55.926;21.066;2023-07-13T13:31:00;101253.69;;;27.00;51.45
54628;BME280;40525;55.926;21.066;2023-07-13T13:33:43;101248.98;;;27.08;51.13
54628;BME280;40525;55.926;21.066;2023-07-13T13:36:23;101246.30;;;27.11;51.00
54628;BME280;40525;55.926;21.066;2023-07-13T13:39:16;101249.95;;;27.31;51.02
54628;BME280;40525;55.926;21.066;2023-07-13T13:41:59;101249.70;;;27.40;50.42
54628;BME280;40525;55.926;21.066;2023-07-13T13:44:39;101246.40;;;27.52;50.54
54628;BME280;40525;55.926;21.066;2023-07-13T13:47:29;101251.00;;;27.58;50.30
54628;BME280;40525;55.926;21.066;2023-07-13T13:50:13;101250.73;;;27.69;50.06
54628;BME280;40525;55.926;21.066;2023-07-13T13:52:55;101253.05;;;27.84;49.42
54628;BME280;40525;55.926;21.066;2023-07-13T13:55:35;101256.65;;;27.99;48.57
54628;BME280;40525;55.926;21.066;2023-07-13T13:58:16;101257.45;;;28.08;48.30
54628;BME280;40525;55.926;21.066;2023-07-13T14:00:57;101258.40;;;28.25;47.90
54628;BME280;40525;55.926;21.066;2023-07-13T14:03:41;101257.23;;;28.34;48.15
54628;BME280;40525;55.926;21.066;2023-07-13T14:06:22;101264.08;;;28.54;47.35
54628;BME280;40525;55.926;21.066;2023-07-13T14:09:02;101263.19;;;28.58;46.48
54628;BME280;40525;55.926;21.066;2023-07-13T14:11:43;101266.07;;;28.50;46.39
54628;BME280;40525;55.926;21.066;2023-07-13T14:14:24;101265.32;;;28.59;47.15
54628;BME280;40525;55.926;21.066;2023-07-13T14:17:24;101263.94;;;28.80;46.33
54628;BME280;40525;55.926;21.066;2023-07-13T14:20:11;101268.67;;;28.56;45.59
54628;BME280;40525;55.926;21.066;2023-07-13T14:22:52;101269.42;;;28.31;46.56
54628;BME280;40525;55.926;21.066;2023-07-13T14:25:33;101272.44;;;28.55;46.34
54628;BME280;40525;55.926;21.066;2023-07-13T14:28:26;101275.16;;;28.50;44.97
54628;BME280;40525;55.926;21.066;2023-07-13T14:31:07;101274.48;;;28.38;45.02
54628;BME280;40525;55.926;21.066;2023-07-13T14:33:47;101275.15;;;28.56;45.15